Time;durP1;ratioP1;P1;durP2;ratioP2;P2;SDS_P1;SDS_P2;PMS_P1;PMS_P2;Temp;Humidity;BMP_temperature;BMP_pressure;BME280_temperature;BME280_humidity;BME280_pressure;Samples;Min_cycle;Max_cycle;Signal;HPM_P1;HPM_P2
2023/10/06 00:00:39;;;;;;;3.85;1.98;;;16.90;69.90;;;;;;5062335;28;20045;-71
2023/10/06 00:03:10;;;;;;;6.25;3.00;;;16.90;70.00;;;;;;5048819;28;20044;-73
2023/10/06 00:05:40;;;;;;;3.55;2.00;;;16.80;69.80;;;;;;5053363;28;20036;-68
2023/10/06 00:08:10;;;;;;;4.53;2.28;;;16.80;69.90;;;;;;5060024;28;20036;-74
2023/10/06 00:10:44;;;;;;;2.97;2.13;;;16.80;69.90;;;;;;5055036;28;20496;-73
2023/10/06 00:13:12;;;;;;;3.60;1.80;;;16.80;70.00;;;;;;5054216;28;20060;-72
2023/10/06 00:15:38;;;;;;;4.50;2.00;;;16.80;70.00;;;;;;5051792;28;20029;-70
2023/10/06 00:18:12;;;;;;;4.82;2.63;;;16.80;70.00;;;;;;5056559;28;20044;-71
2023/10/06 00:20:46;;;;;;;3.28;2.13;;;16.80;70.10;;;;;;5048842;28;20587;-66
2023/10/06 00:23:14;;;;;;;4.95;2.13;;;16.70;69.90;;;;;;5059349;28;20032;-67
2023/10/06 00:25:45;;;;;;;4.72;2.13;;;16.80;70.10;;;;;;5059648;28;20036;-65
2023/10/06 00:28:19;;;;;;;3.67;2.22;;;16.80;70.20;;;;;;5056600;28;20036;-68
2023/10/06 00:31:05;;;;;;;6.43;2.30;;;16.70;70.00;;;;;;5059907;28;20036;-67
2023/10/06 00:33:37;;;;;;;3.45;1.80;;;16.70;70.10;;;;;;5064473;28;20029;-67
2023/10/06 00:36:12;;;;;;;2.97;2.45;;;16.70;70.10;;;;;;5055308;28;20051;-68
2023/10/06 00:38:47;;;;;;;3.83;1.67;;;16.70;70.10;;;;;;5077294;28;20028;-67
2023/10/06 00:41:16;;;;;;;4.32;2.50;;;16.70;70.20;;;;;;5057579;28;20040;-66
2023/10/06 00:43:45;;;;;;;5.15;2.25;;;16.70;70.20;;;;;;5061677;28;20052;-67
2023/10/06 00:46:13;;;;;;;2.97;1.83;;;16.70;70.20;;;;;;5057644;28;20028;-67
2023/10/06 00:48:41;;;;;;;3.60;1.98;;;16.70;70.20;;;;;;5061229;28;20043;-66
2023/10/06 00:51:10;;;;;;;5.18;2.15;;;16.70;70.30;;;;;;5066282;28;20094;-67
2023/10/06 00:53:36;;;;;;;3.53;1.80;;;16.70;70.30;;;;;;5063045;28;20536;-66
2023/10/06 00:56:10;;;;;;;5.85;2.47;;;16.60;70.20;;;;;;5060639;28;20033;-75
2023/10/06 00:58:43;;;;;;;4.55;2.30;;;16.60;70.20;;;;;;5059567;28;20271;-67
2023/10/06 01:01:17;;;;;;;5.72;1.92;;;16.60;70.20;;;;;;5062128;28;20035;-68
2023/10/06 01:04:11;;;;;;;3.78;2.22;;;16.60;70.20;;;;;;5061095;28;20198;-70
2023/10/06 01:06:41;;;;;;;4.68;2.92;;;16.60;70.30;;;;;;5059412;28;20025;-71
2023/10/06 01:11:50;;;;;;;4.32;1.75;;;16.60;70.30;;;;;;5061499;28;20032;-71
2023/10/06 01:14:26;;;;;;;3.28;1.90;;;16.60;70.40;;;;;;5049765;28;20036;-75
2023/10/06 01:16:55;;;;;;;2.90;2.10;;;16.60;70.40;;;;;;5041667;28;20384;-72
2023/10/06 01:19:27;;;;;;;4.13;2.15;;;16.60;70.40;;;;;;5063682;28;20029;-72
2023/10/06 01:21:55;;;;;;;5.25;2.33;;;16.60;70.40;;;;;;5055908;28;20025;-73
2023/10/06 01:24:25;;;;;;;9.68;2.30;;;16.60;70.40;;;;;;5058999;28;20484;-72
2023/10/06 01:27:07;;;;;;;5.00;2.42;;;16.60;70.40;;;;;;5058033;28;20114;-75
2023/10/06 01:29:37;;;;;;;3.55;2.15;;;16.60;70.50;;;;;;5066258;28;20059;-73
2023/10/06 01:32:05;;;;;;;3.88;2.20;;;16.60;70.50;;;;;;5047450;28;20028;-71
2023/10/06 01:34:39;;;;;;;4.40;2.10;;;16.50;70.30;;;;;;5051259;28;20531;-75
2023/10/06 01:37:07;;;;;;;3.13;1.95;;;16.60;70.60;;;;;;5061691;28;20035;-68
2023/10/06 01:39:36;;;;;;;3.78;1.80;;;16.60;70.60;;;;;;5059886;28;20385;-70
2023/10/06 01:42:17;;;;;;;4.40;1.77;;;16.50;70.50;;;;;;5055209;28;20037;-76
2023/10/06 01:44:43;;;;;;;4.43;2.00;;;16.50;70.50;;;;;;5055591;28;20045;-73
2023/10/06 01:47:11;;;;;;;4.57;2.05;;;16.50;70.50;;;;;;5059175;28;20051;-69
2023/10/06 01:49:37;;;;;;;4.47;2.25;;;16.50;70.60;;;;;;5059587;28;20081;-76
2023/10/06 01:52:05;;;;;;;3.17;2.13;;;16.50;70.70;;;;;;5056558;28;20427;-72
2023/10/06 01:54:34;;;;;;;3.60;2.13;;;16.50;70.70;;;;;;5054955;28;20041;-74
2023/10/06 01:57:11;;;;;;;3.97;1.80;;;16.40;70.50;;;;;;5041488;28;20033;-75
2023/10/06 01:59:37;;;;;;;3.58;1.90;;;16.50;70.80;;;;;;5055837;28;20051;-73
2023/10/06 02:02:07;;;;;;;6.25;2.30;;;16.40;70.60;;;;;;5053882;28;20044;-72
2023/10/06 02:04:45;;;;;;;3.92;2.50;;;16.40;70.70;;;;;;5056530;28;20047;-72
2023/10/06 02:07:11;;;;;;;4.63;1.90;;;16.40;70.70;;;;;;5057426;28;20476;-75
2023/10/06 02:09:38;;;;;;;5.57;2.22;;;16.40;70.70;;;;;;5057638;28;20032;-72
2023/10/06 02:12:04;;;;;;;5.50;2.60;;;16.40;70.80;;;;;;5054963;28;20031;-72
2023/10/06 02:14:30;;;;;;;4.68;2.60;;;16.40;70.80;;;;;;5049061;28;20131;-72
2023/10/06 02:16:56;;;;;;;3.35;1.95;;;16.40;70.90;;;;;;5059429;28;20036;-72
2023/10/06 02:19:22;;;;;;;4.20;2.33;;;16.40;70.90;;;;;;5047649;28;20044;-71
2023/10/06 02:21:49;;;;;;;5.50;2.20;;;16.40;70.90;;;;;;5053919;28;20025;-69
2023/10/06 02:24:18;;;;;;;4.60;2.20;;;16.40;70.90;;;;;;5057166;28;20285;-70
2023/10/06 02:27:00;;;;;;;3.15;2.03;;;16.30;70.80;;;;;;5055325;28;20495;-72
2023/10/06 02:29:26;;;;;;;5.13;2.03;;;16.30;70.80;;;;;;5046933;28;20214;-71
2023/10/06 02:32:06;;;;;;;3.58;1.75;;;16.30;70.80;;;;;;5054922;28;20059;-74
2023/10/06 02:34:35;;;;;;;3.83;2.00;;;16.30;70.90;;;;;;5052308;28;20036;-75
2023/10/06 02:37:06;;;;;;;2.72;1.63;;;16.30;70.90;;;;;;5055080;28;20027;-77
2023/10/06 02:39:34;;;;;;;2.33;1.98;;;16.30;70.90;;;;;;5056074;28;20301;-78
2023/10/06 02:42:13;;;;;;;4.43;1.88;;;16.30;70.90;;;;;;5050242;28;20274;-73
2023/10/06 02:44:41;;;;;;;4.22;2.45;;;16.30;71.00;;;;;;5053912;28;20060;-71
2023/10/06 02:47:11;;;;;;;6.35;2.70;;;16.30;71.00;;;;;;5054760;28;20147;-73
2023/10/06 02:49:40;;;;;;;5.13;2.53;;;16.30;71.10;;;;;;5051795;28;20036;-73
2023/10/06 02:52:29;;;;;;;5.13;2.30;;;16.20;70.90;;;;;;5056630;28;20550;-74
2023/10/06 02:57:28;;;;;;;4.32;2.60;;;16.20;71.00;;;;;;5051865;28;20032;-69
2023/10/06 02:59:56;;;;;;;5.47;2.10;;;16.20;71.00;;;;;;5057016;28;20059;-73
2023/10/06 03:02:26;;;;;;;5.20;3.55;;;16.20;71.00;;;;;;5049221;28;20037;-68
2023/10/06 03:05:00;;;;;;;5.45;2.08;;;16.20;71.10;;;;;;5059230;28;20033;-72
2023/10/06 03:07:28;;;;;;;3.35;2.28;;;16.20;71.20;;;;;;5056730;28;20040;-68
2023/10/06 03:09:54;;;;;;;6.93;2.50;;;16.20;71.20;;;;;;5052905;28;20320;-70
2023/10/06 03:14:50;;;;;;;7.32;3.25;;;16.20;71.30;;;;;;5043799;28;20121;-69
2023/10/06 03:17:19;;;;;;;4.88;2.13;;;16.20;71.30;;;;;;5058706;28;20029;-75
2023/10/06 03:19:56;;;;;;;3.67;2.08;;;16.20;71.40;;;;;;5051633;28;20033;-70
2023/10/06 03:22:25;;;;;;;4.35;2.13;;;16.10;71.20;;;;;;5039195;28;20056;-68
2023/10/06 03:24:59;;;;;;;8.68;4.07;;;16.10;71.20;;;;;;5047860;28;20033;-68
2023/10/06 03:27:27;;;;;;;6.03;3.28;;;16.10;71.30;;;;;;5051212;28;20043;-72
2023/10/06 03:30:07;;;;;;;3.58;2.05;;;16.10;71.30;;;;;;5063927;28;20032;-72
2023/10/06 03:32:38;;;;;;;3.10;2.00;;;16.10;71.30;;;;;;5062729;28;20044;-70
2023/10/06 03:35:23;;;;;;;3.30;2.47;;;16.10;71.40;;;;;;5059101;28;20077;-73
2023/10/06 03:37:51;;;;;;;8.48;2.90;;;16.10;71.40;;;;;;5060898;28;20047;-71
2023/10/06 03:40:43;;;;;;;3.30;1.65;;;16.10;71.40;;;;;;5065518;28;20550;-72
2023/10/06 03:43:12;;;;;;;4.28;1.90;;;16.10;71.50;;;;;;5052150;28;20028;-70
2023/10/06 03:45:41;;;;;;;5.10;2.88;;;16.00;71.40;;;;;;5050545;28;20044;-71
2023/10/06 03:48:12;;;;;;;5.32;2.05;;;16.00;71.40;;;;;;5057862;28;20028;-76
2023/10/06 03:50:43;;;;;;;4.45;2.80;;;16.00;71.40;;;;;;5047678;28;20499;-75
2023/10/06 03:53:12;;;;;;;4.97;2.00;;;16.00;71.50;;;;;;5053360;28;20384;-75
2023/10/06 03:55:42;;;;;;;5.55;2.13;;;16.00;71.50;;;;;;5044687;28;20090;-73
2023/10/06 03:58:10;;;;;;;4.30;2.17;;;16.00;71.60;;;;;;5055310;28;20329;-72
2023/10/06 04:00:44;;;;;;;4.07;1.92;;;16.00;71.60;;;;;;5051943;28;20067;-72
2023/10/06 04:03:13;;;;;;;5.55;2.38;;;15.90;71.50;;;;;;5046600;28;20385;-74
2023/10/06 04:05:41;;;;;;;2.63;1.70;;;15.90;71.50;;;;;;5050435;28;20079;-74
2023/10/06 04:08:15;;;;;;;3.38;2.05;;;15.90;71.50;;;;;;5058215;28;20439;-76
2023/10/06 04:10:51;;;;;;;5.25;2.10;;;15.90;72.10;;;;;;5052552;28;20021;-74
2023/10/06 04:13:17;;;;;;;4.75;2.05;;;15.90;71.60;;;;;;5054564;28;20406;-72
2023/10/06 04:15:52;;;;;;;4.68;2.00;;;15.90;71.60;;;;;;5052994;28;20139;-73
2023/10/06 04:18:23;;;;;;;3.35;2.17;;;15.90;71.70;;;;;;5056248;28;20997;-71
2023/10/06 04:20:53;;;;;;;2.80;2.13;;;15.90;71.70;;;;;;5063122;28;20633;-73
2023/10/06 04:23:23;;;;;;;3.05;2.10;;;15.90;71.80;;;;;;5060936;28;20036;-71
2023/10/06 04:25:54;;;;;;;5.22;2.08;;;15.80;71.60;;;;;;5058899;28;20028;-74
2023/10/06 04:28:25;;;;;;;3.13;2.30;;;15.80;71.70;;;;;;5059979;28;20279;-72
2023/10/06 04:30:51;;;;;;;5.55;2.53;;;15.80;71.70;;;;;;5059950;28;20430;-73
2023/10/06 04:33:21;;;;;;;5.03;2.20;;;15.80;71.70;;;;;;5064337;28;20044;-73
2023/10/06 04:36:07;;;;;;;8.63;2.47;;;15.80;71.80;;;;;;5059111;28;20075;-73
2023/10/06 04:38:37;;;;;;;3.70;2.40;;;15.80;71.90;;;;;;5061419;28;20476;-78
2023/10/06 04:41:08;;;;;;;5.03;2.45;;;15.80;71.90;;;;;;5058004;28;20044;-77
2023/10/06 04:43:35;;;;;;;4.85;2.10;;;15.70;71.80;;;;;;5060176;28;20032;-77
2023/10/06 04:46:01;;;;;;;4.65;2.08;;;15.80;72.00;;;;;;5060951;28;20024;-74
2023/10/06 04:48:29;;;;;;;5.72;2.38;;;15.80;72.00;;;;;;5060337;28;20401;-75
2023/10/06 04:50:55;;;;;;;3.97;2.22;;;15.70;71.90;;;;;;5043612;28;20088;-67
2023/10/06 04:53:22;;;;;;;7.75;3.00;;;15.70;71.90;;;;;;5057608;28;20040;-72
2023/10/06 04:55:48;;;;;;;6.82;2.70;;;15.70;71.90;;;;;;5058296;28;20029;-74
2023/10/06 04:58:15;;;;;;;5.18;3.20;;;15.70;72.00;;;;;;5054852;28;20495;-68
2023/10/06 05:00:41;;;;;;;6.55;2.28;;;15.70;72.00;;;;;;5058987;28;20040;-68
2023/10/06 05:03:10;;;;;;;6.88;3.47;;;15.70;72.10;;;;;;5060946;28;20557;-67
2023/10/06 05:05:42;;;;;;;3.83;2.35;;;15.70;72.10;;;;;;5057341;28;20017;-73
2023/10/06 05:08:14;;;;;;;3.10;1.83;;;15.70;72.10;;;;;;5059978;28;20027;-71
2023/10/06 05:10:41;;;;;;;5.30;2.40;;;15.60;72.00;;;;;;5063126;28;20039;-70
2023/10/06 05:13:08;;;;;;;5.45;2.55;;;15.60;72.00;;;;;;5058351;28;20033;-74
2023/10/06 05:15:34;;;;;;;4.65;2.65;;;15.60;72.00;;;;;;5060593;28;20350;-72
2023/10/06 05:18:03;;;;;;;7.32;2.30;;;15.60;72.00;;;;;;5065095;28;20078;-71
2023/10/06 05:20:33;;;;;;;7.32;3.17;;;15.60;72.10;;;;;;5066419;28;20052;-76
2023/10/06 05:23:07;;;;;;;6.63;3.17;;;15.60;72.10;;;;;;5054753;28;20144;-70
2023/10/06 05:25:33;;;;;;;5.05;2.47;;;15.60;72.20;;;;;;5060975;28;20051;-72
2023/10/06 05:28:00;;;;;;;4.15;2.47;;;15.60;72.20;;;;;;5061679;28;20044;-75
2023/10/06 05:30:27;;;;;;;6.20;2.95;;;15.60;72.20;;;;;;5047202;28;20388;-71
2023/10/06 05:32:57;;;;;;;4.13;2.40;;;15.60;72.30;;;;;;5061179;28;20075;-75
2023/10/06 05:35:28;;;;;;;5.47;2.55;;;15.50;72.10;;;;;;5054516;28;20028;-74
2023/10/06 05:37:55;;;;;;;4.60;2.40;;;15.50;72.20;;;;;;5061707;28;20746;-76
2023/10/06 05:40:21;;;;;;;4.18;2.17;;;15.50;72.20;;;;;;5059725;28;20060;-74
2023/10/06 05:42:49;;;;;;;6.07;3.30;;;15.50;72.30;;;;;;5052064;28;20480;-73
2023/10/06 05:45:18;;;;;;;6.47;2.50;;;15.50;72.50;;;;;;5059090;28;20048;-72
2023/10/06 05:47:51;;;;;;;4.40;2.50;;;15.50;72.60;;;;;;5053379;28;20048;-69
2023/10/06 05:50:19;;;;;;;4.78;2.78;;;15.50;72.60;;;;;;5058061;28;20468;-70
2023/10/06 05:52:51;;;;;;;4.13;2.25;;;15.50;72.60;;;;;;5059960;28;20032;-77
2023/10/06 05:55:20;;;;;;;9.77;2.80;;;15.50;72.70;;;;;;5056396;28;20051;-67
2023/10/06 05:57:55;;;;;;;5.43;2.40;;;15.50;72.80;;;;;;5058029;28;20119;-69
2023/10/06 06:00:31;;;;;;;5.50;2.55;;;15.50;72.80;;;;;;5054750;28;20677;-67
2023/10/06 06:03:10;;;;;;;6.28;3.10;;;15.50;72.80;;;;;;5055778;28;20040;-68
2023/10/06 06:05:38;;;;;;;5.30;2.63;;;15.50;73.00;;;;;;5057542;28;20057;-71
2023/10/06 06:08:05;;;;;;;4.35;2.15;;;15.50;73.30;;;;;;5056157;28;20029;-72
2023/10/06 06:10:31;;;;;;;5.22;2.20;;;15.50;73.40;;;;;;5058371;28;20025;-72
2023/10/06 06:13:00;;;;;;;3.58;2.35;;;15.50;73.90;;;;;;5047505;28;20054;-67
2023/10/06 06:15:26;;;;;;;4.00;2.05;;;15.50;73.40;;;;;;5044968;28;20025;-68
2023/10/06 06:17:58;;;;;;;3.60;2.42;;;15.50;73.50;;;;;;5058058;28;20503;-67
2023/10/06 06:20:25;;;;;;;5.22;2.42;;;15.40;73.30;;;;;;5052939;28;20040;-70
2023/10/06 06:22:59;;;;;;;4.43;2.25;;;15.40;73.30;;;;;;5056406;28;20044;-70
2023/10/06 06:25:29;;;;;;;4.95;2.67;;;15.40;73.30;;;;;;5054016;28;20036;-71
2023/10/06 06:27:59;;;;;;;2.85;2.10;;;15.50;73.60;;;;;;5059225;28;20029;-67
2023/10/06 06:30:26;;;;;;;5.22;2.70;;;15.40;73.40;;;;;;5052456;28;20037;-71
2023/10/06 06:32:54;;;;;;;4.05;2.42;;;15.40;73.40;;;;;;5056951;28;20606;-72
2023/10/06 06:35:21;;;;;;;4.03;2.90;;;15.40;73.40;;;;;;5058851;28;20028;-71
2023/10/06 06:37:54;;;;;;;5.43;2.45;;;15.40;73.50;;;;;;5056471;28;20036;-67
2023/10/06 06:40:22;;;;;;;5.85;2.13;;;15.40;73.50;;;;;;5051028;28;20525;-69
2023/10/06 06:42:49;;;;;;;3.75;2.67;;;15.40;73.50;;;;;;5057974;28;20049;-70
2023/10/06 06:45:18;;;;;;;3.55;2.58;;;15.40;73.50;;;;;;5058787;28;20067;-70
2023/10/06 06:47:45;;;;;;;4.85;2.20;;;15.40;73.50;;;;;;5058320;28;20028;-68
2023/10/06 06:50:17;;;;;;;6.50;2.55;;;15.40;74.00;;;;;;5063447;28;20024;-73
2023/10/06 06:52:44;;;;;;;4.65;2.20;;;15.40;73.50;;;;;;5059312;28;20064;-73
2023/10/06 06:55:14;;;;;;;4.13;2.13;;;15.50;73.60;;;;;;5058732;28;20503;-71
2023/10/06 06:57:43;;;;;;;7.82;3.38;;;15.50;73.60;;;;;;5059078;28;20491;-75
2023/10/06 07:00:17;;;;;;;3.45;1.98;;;15.50;73.60;;;;;;5039243;28;20053;-73
2023/10/06 07:02:47;;;;;;;4.13;2.45;;;15.50;73.60;;;;;;5060642;28;20043;-72
2023/10/06 07:05:14;;;;;;;3.75;2.33;;;15.50;73.50;;;;;;5059958;28;20029;-68
2023/10/06 07:07:43;;;;;;;4.43;2.88;;;15.60;73.60;;;;;;5062250;28;20047;-70
2023/10/06 07:10:14;;;;;;;7.38;2.50;;;15.60;73.60;;;;;;5055565;28;20672;-70
2023/10/06 07:12:44;;;;;;;2.25;1.80;;;15.70;73.80;;;;;;5058737;28;20040;-75
2023/10/06 07:15:17;;;;;;;5.28;2.35;;;15.70;73.70;;;;;;5054246;28;20507;-71
2023/10/06 07:17:54;;;;;;;2.08;1.88;;;15.80;73.70;;;;;;5056998;28;20731;-73
2023/10/06 07:20:30;;;;;;;5.75;2.88;;;15.80;73.60;;;;;;5055081;28;20032;-75
2023/10/06 07:23:00;;;;;;;5.18;2.05;;;15.80;73.50;;;;;;5054831;28;20036;-75
2023/10/06 07:25:27;;;;;;;6.35;2.70;;;15.90;73.60;;;;;;5055369;28;20097;-74
2023/10/06 07:27:55;;;;;;;3.63;2.13;;;15.90;74.00;;;;;;5057100;28;20957;-76
2023/10/06 07:30:26;;;;;;;5.25;2.95;;;16.00;73.60;;;;;;5069461;28;20071;-68
2023/10/06 07:32:56;;;;;;;6.43;2.47;;;16.00;73.50;;;;;;5057032;28;20028;-74
2023/10/06 07:35:31;;;;;;;4.40;2.10;;;16.10;73.60;;;;;;5054639;28;20060;-71
2023/10/06 07:37:58;;;;;;;3.67;2.45;;;16.10;73.50;;;;;;5056593;28;20028;-71
2023/10/06 07:40:27;;;;;;;3.83;2.08;;;16.20;73.60;;;;;;5054026;28;20035;-69
2023/10/06 07:42:57;;;;;;;4.78;2.40;;;16.20;73.50;;;;;;5060172;28;20044;-72
2023/10/06 07:45:26;;;;;;;5.75;2.85;;;16.30;73.60;;;;;;5050949;28;20550;-68
2023/10/06 07:47:54;;;;;;;6.07;2.65;;;16.30;73.50;;;;;;5058367;28;20033;-66
2023/10/06 07:50:20;;;;;;;5.38;2.83;;;16.40;73.50;;;;;;5058678;28;20090;-71
2023/10/06 07:52:47;;;;;;;6.05;2.45;;;16.50;73.70;;;;;;5058198;28;20036;-67
2023/10/06 07:55:15;;;;;;;3.65;1.85;;;16.50;73.60;;;;;;5059038;28;20023;-66
2023/10/06 07:57:45;;;;;;;4.65;2.05;;;16.60;73.60;;;;;;5058725;28;20037;-70
2023/10/06 08:00:18;;;;;;;3.67;1.98;;;16.70;74.20;;;;;;5060151;28;20052;-67
2023/10/06 08:02:45;;;;;;;5.57;2.75;;;16.70;73.50;;;;;;5060159;28;20029;-67
2023/10/06 08:05:13;;;;;;;4.28;2.58;;;16.80;73.50;;;;;;5059559;28;20477;-70
2023/10/06 08:07:40;;;;;;;3.92;3.10;;;16.90;73.50;;;;;;5063828;28;20180;-67
2023/10/06 08:10:11;;;;;;;5.75;2.55;;;17.00;73.60;;;;;;5055016;28;20039;-67
2023/10/06 08:13:01;;;;;;;;;;;17.10;73.60;;;;;;5054260;28;20089;-67
2023/10/06 08:15:28;;;;;;;4.20;2.50;;;17.20;73.50;;;;;;5055541;28;19912;-67
2023/10/06 08:17:55;;;;;;;4.15;2.10;;;17.30;73.40;;;;;;5059434;28;20090;-67
2023/10/06 08:20:23;;;;;;;5.70;2.30;;;17.30;73.30;;;;;;5053123;28;20044;-67
2023/10/06 08:22:49;;;;;;;4.82;2.33;;;17.40;73.30;;;;;;5066653;28;20036;-67
2023/10/06 08:25:19;;;;;;;3.78;2.50;;;17.50;73.40;;;;;;5059828;28;20040;-68
2023/10/06 08:27:48;;;;;;;4.47;2.22;;;17.60;73.40;;;;;;5049340;28;20029;-68
2023/10/06 08:30:16;;;;;;;5.43;2.03;;;17.60;73.30;;;;;;5054828;28;20586;-70
2023/10/06 08:32:47;;;;;;;3.83;2.15;;;17.70;73.30;;;;;;5059917;28;20144;-71
2023/10/06 08:35:14;;;;;;;3.30;1.98;;;17.80;73.40;;;;;;5059100;28;20498;-72
2023/10/06 08:37:42;;;;;;;5.28;2.10;;;17.80;73.20;;;;;;5059587;28;20029;-71
2023/10/06 08:40:16;;;;;;;3.80;2.80;;;17.90;73.30;;;;;;5055824;28;20384;-69
2023/10/06 08:42:48;;;;;;;8.07;3.20;;;17.90;73.20;;;;;;5051604;28;20041;-67
2023/10/06 08:45:22;;;;;;;4.13;2.33;;;18.00;73.30;;;;;;5059280;28;20024;-67
2023/10/06 08:47:58;;;;;;;5.85;2.30;;;18.00;73.10;;;;;;5062051;28;20032;-72
2023/10/06 08:50:30;;;;;;;5.55;2.28;;;18.10;73.20;;;;;;5056017;28;20028;-71
2023/10/06 08:52:57;;;;;;;5.22;2.60;;;18.10;73.10;;;;;;5062025;28;20052;-67
2023/10/06 08:55:25;;;;;;;6.85;3.20;;;18.20;73.20;;;;;;5055212;28;20037;-71
2023/10/06 08:57:52;;;;;;;4.20;2.80;;;18.20;73.10;;;;;;5056918;28;20399;-67
2023/10/06 09:00:22;;;;;;;5.93;3.08;;;18.30;73.20;;;;;;5059182;28;20139;-69
2023/10/06 09:02:51;;;;;;;2.80;2.25;;;18.30;73.10;;;;;;5062076;28;20044;-67
2023/10/06 09:05:17;;;;;;;7.55;2.97;;;18.40;73.20;;;;;;5065200;28;20493;-67
2023/10/06 09:08:09;;;;;;;4.75;2.40;;;18.40;73.10;;;;;;5059589;28;20032;-68
2023/10/06 09:10:37;;;;;;;4.15;1.80;;;18.40;73.00;;;;;;5059439;28;20028;-69
2023/10/06 09:13:17;;;;;;;4.90;2.45;;;18.50;73.10;;;;;;5059605;28;20032;-70
2023/10/06 09:16:02;;;;;;;4.47;2.30;;;18.50;73.00;;;;;;5058148;28;20683;-68
2023/10/06 09:18:29;;;;;;;2.97;2.22;;;18.50;72.90;;;;;;5060517;28;20516;-70
2023/10/06 09:21:09;;;;;;;7.28;2.85;;;18.50;72.90;;;;;;5060669;28;20385;-68
2023/10/06 09:23:39;;;;;;;4.43;2.40;;;18.50;72.80;;;;;;5060066;28;20406;-69
2023/10/06 09:26:11;;;;;;;6.70;3.33;;;18.60;73.00;;;;;;5056813;28;20032;-68
2023/10/06 09:28:50;;;;;;;4.97;2.25;;;18.60;72.90;;;;;;5058623;28;20768;-67
2023/10/06 09:31:18;;;;;;;6.72;3.55;;;18.70;72.90;;;;;;5050983;28;20531;-65
2023/10/06 09:33:48;;;;;;;6.35;2.10;;;18.70;72.90;;;;;;5068795;28;20043;-67
2023/10/06 09:36:21;;;;;;;3.83;2.22;;;18.70;72.80;;;;;;5059130;28;20743;-67
2023/10/06 09:38:47;;;;;;;3.47;2.42;;;18.70;72.80;;;;;;5062495;28;20029;-67
2023/10/06 09:41:28;;;;;;;4.70;2.38;;;18.70;72.80;;;;;;5066425;28;20028;-73
2023/10/06 09:44:02;;;;;;;4.13;2.40;;;18.70;72.80;;;;;;5062318;28;20554;-68
2023/10/06 09:46:34;;;;;;;4.80;2.67;;;18.70;72.90;;;;;;5063999;28;20471;-69
2023/10/06 09:49:06;;;;;;;5.25;2.92;;;18.70;72.90;;;;;;5066343;28;20178;-69
2023/10/06 09:51:36;;;;;;;3.75;2.33;;;18.70;73.00;;;;;;5059885;28;20510;-69
2023/10/06 09:54:09;;;;;;;5.38;2.85;;;18.70;73.00;;;;;;5058399;28;20480;-67
2023/10/06 09:56:37;;;;;;;4.53;2.87;;;18.70;72.90;;;;;;5060572;28;20183;-67
2023/10/06 09:59:07;;;;;;;5.45;3.05;;;18.70;72.90;;;;;;5056868;28;20650;-70
2023/10/06 10:01:36;;;;;;;4.15;2.50;;;18.80;73.00;;;;;;5059056;28;20075;-74
2023/10/06 10:04:03;;;;;;;5.63;3.25;;;18.80;73.00;;;;;;5059306;28;20036;-67
2023/10/06 10:06:30;;;;;;;5.95;2.65;;;18.80;72.90;;;;;;5061195;28;20039;-69
2023/10/06 10:08:56;;;;;;;4.40;2.75;;;18.90;73.00;;;;;;5057511;28;20455;-68
2023/10/06 10:11:31;;;;;;;4.22;2.13;;;18.90;72.90;;;;;;5057649;28;20617;-70
2023/10/06 10:14:18;;;;;;;7.45;2.78;;;18.90;72.90;;;;;;5054604;28;20143;-71
2023/10/06 10:17:34;;;;;;;5.35;2.88;;;19.00;73.10;;;;;;5056590;28;20511;-67
2023/10/06 10:20:01;;;;;;;6.95;2.28;;;19.10;73.00;;;;;;5046958;28;20050;-76
2023/10/06 10:22:26;;;;;;;6.32;3.20;;;19.30;72.90;;;;;;5058416;28;20036;-70
2023/10/06 10:24:53;;;;;;;3.38;2.47;;;19.40;72.70;;;;;;5062812;28;20742;-74
2023/10/06 10:27:22;;;;;;;4.32;2.67;;;19.60;72.70;;;;;;5060961;28;20096;-76
2023/10/06 10:29:49;;;;;;;7.18;2.40;;;19.80;72.60;;;;;;5059178;28;20032;-72
2023/10/06 10:32:17;;;;;;;4.55;2.97;;;20.00;72.50;;;;;;5066524;28;20579;-73
2023/10/06 10:35:12;;;;;;;5.05;2.72;;;20.10;72.30;;;;;;5066069;28;20090;-75
2023/10/06 10:37:56;;;;;;;5.25;2.85;;;20.30;72.20;;;;;;5059040;28;20033;-73
2023/10/06 10:40:24;;;;;;;4.60;2.30;;;20.40;72.00;;;;;;5054285;28;20036;-73
2023/10/06 10:43:03;;;;;;;4.10;2.30;;;20.50;71.90;;;;;;5063442;28;20040;-76
2023/10/06 10:45:34;;;;;;;4.32;2.40;;;20.70;71.90;;;;;;5062474;28;20807;-70
2023/10/06 10:48:13;;;;;;;6.85;4.00;;;20.80;71.70;;;;;;5065451;28;20532;-71
2023/10/06 10:51:00;;;;;;;7.20;4.03;;;20.90;71.40;;;;;;5060297;28;20041;-70
2023/10/06 10:53:29;;;;;;;5.47;3.47;;;21.00;71.60;;;;;;5051990;28;20024;-75
2023/10/06 10:55:56;;;;;;;10.57;3.45;;;21.10;71.50;;;;;;5056468;28;20093;-75
2023/10/06 10:58:53;;;;;;;7.38;3.40;;;21.20;71.40;;;;;;5064666;28;20067;-72
2023/10/06 11:01:37;;;;;;;6.43;3.10;;;21.30;71.20;;;;;;5058753;28;20043;-74
2023/10/06 11:04:09;;;;;;;5.47;2.78;;;21.30;71.50;;;;;;5057086;28;20037;-75
2023/10/06 11:06:39;;;;;;;5.95;3.05;;;21.40;71.10;;;;;;5056433;28;20039;-72
2023/10/06 11:09:25;;;;;;;8.75;3.40;;;21.40;71.00;;;;;;5057448;28;20850;-71
2023/10/06 11:12:01;;;;;;;7.85;3.47;;;21.40;70.90;;;;;;5060221;28;20516;-71
2023/10/06 11:14:30;;;;;;;5.78;2.75;;;21.40;70.90;;;;;;5055333;28;20048;-74
2023/10/06 11:17:02;;;;;;;5.38;2.92;;;21.40;71.00;;;;;;5054614;28;20126;-74
2023/10/06 11:19:32;;;;;;;7.40;3.47;;;21.50;70.90;;;;;;5056452;28;20067;-73
2023/10/06 11:22:19;;;;;;;8.02;2.60;;;21.60;70.80;;;;;;5059672;28;20532;-74
2023/10/06 11:24:47;;;;;;;5.63;3.00;;;21.70;70.60;;;;;;5059234;28;20355;-71
2023/10/06 11:27:21;;;;;;;4.70;3.20;;;21.80;70.60;;;;;;5056764;28;20754;-70
2023/10/06 11:29:52;;;;;;;6.97;2.92;;;21.90;70.40;;;;;;5055778;28;20037;-74
2023/10/06 11:32:21;;;;;;;6.13;2.83;;;22.00;70.40;;;;;;5061163;28;20103;-73
2023/10/06 11:34:48;;;;;;;6.50;3.42;;;22.10;70.30;;;;;;5057110;28;21884;-68
2023/10/06 11:37:22;;;;;;;6.03;2.60;;;22.10;70.10;;;;;;5059963;28;20073;-73
2023/10/06 11:39:52;;;;;;;7.47;2.97;;;22.20;70.10;;;;;;5055663;28;20046;-70
2023/10/06 11:42:25;;;;;;;8.00;2.60;;;22.30;70.00;;;;;;5055363;28;20451;-71
2023/10/06 11:44:52;;;;;;;4.68;2.88;;;22.40;70.00;;;;;;5059017;28;20036;-73
2023/10/06 11:47:21;;;;;;;4.85;2.10;;;22.50;70.00;;;;;;5060826;28;20481;-70
2023/10/06 11:49:57;;;;;;;4.38;2.28;;;22.60;70.50;;;;;;5063855;28;20069;-73
2023/10/06 11:52:24;;;;;;;3.13;1.95;;;22.60;69.70;;;;;;5057415;28;20191;-70
2023/10/06 11:54:54;;;;;;;7.00;2.75;;;22.70;69.80;;;;;;5061857;28;20155;-71
2023/10/06 11:57:46;;;;;;;6.15;2.28;;;22.70;69.80;;;;;;5055910;28;20059;-74
2023/10/06 12:00:17;;;;;;;3.70;2.30;;;22.70;69.40;;;;;;5061337;28;20135;-74
2023/10/06 12:02:49;;;;;;;6.22;2.30;;;22.80;69.50;;;;;;5057017;28;20048;-71
2023/10/06 12:05:19;;;;;;;4.13;2.30;;;22.90;69.40;;;;;;5064044;28;20127;-75
2023/10/06 12:07:51;;;;;;;6.53;2.55;;;23.00;69.40;;;;;;5062052;28;20123;-74
2023/10/06 12:10:18;;;;;;;5.50;2.55;;;23.00;69.10;;;;;;5061275;28;20032;-69
2023/10/06 12:12:50;;;;;;;4.60;2.03;;;23.10;69.10;;;;;;5085759;28;20115;-69
2023/10/06 12:15:17;;;;;;;4.35;2.28;;;23.10;68.90;;;;;;5064230;28;20063;-73
2023/10/06 12:17:43;;;;;;;4.80;2.13;;;23.00;68.80;;;;;;5081945;28;20044;-70
2023/10/06 12:20:16;;;;;;;3.22;1.75;;;23.00;68.80;;;;;;5069204;28;20033;-69
2023/10/06 12:22:43;;;;;;;3.67;1.90;;;22.90;68.60;;;;;;5059113;28;20542;-73
2023/10/06 12:25:16;;;;;;;3.83;1.92;;;22.90;68.70;;;;;;5057645;28;20078;-71
2023/10/06 12:27:46;;;;;;;2.95;1.73;;;22.80;69.20;;;;;;5060504;28;20609;-73
2023/10/06 12:30:14;;;;;;;3.05;1.77;;;22.80;68.60;;;;;;5056355;28;20040;-72
2023/10/06 12:32:45;;;;;;;5.53;2.03;;;22.70;68.50;;;;;;5055045;28;20036;-68
2023/10/06 12:35:12;;;;;;;4.50;2.20;;;22.70;68.40;;;;;;5050678;28;20037;-67
2023/10/06 12:37:41;;;;;;;5.13;2.58;;;22.70;68.50;;;;;;5056805;28;20118;-68
2023/10/06 12:40:09;;;;;;;5.80;2.35;;;22.70;68.40;;;;;;5056602;28;20067;-67
2023/10/06 12:42:38;;;;;;;2.60;2.17;;;22.70;68.30;;;;;;5062028;28;20052;-67
2023/10/06 12:45:12;;;;;;;3.22;1.98;;;22.80;68.50;;;;;;5060209;28;20143;-67
2023/10/06 12:47:39;;;;;;;2.75;1.90;;;22.70;68.30;;;;;;5061846;28;20041;-73
2023/10/06 12:50:09;;;;;;;3.95;2.17;;;22.80;68.40;;;;;;5064145;28;20558;-71
2023/10/06 12:52:36;;;;;;;5.32;2.17;;;22.80;68.40;;;;;;5060378;28;20037;-71
2023/10/06 12:55:15;;;;;;;3.92;2.20;;;22.90;68.50;;;;;;5061345;28;20047;-71
2023/10/06 12:57:42;;;;;;;4.57;2.25;;;23.00;68.30;;;;;;5058808;28;20439;-70
2023/10/06 13:00:09;;;;;;;4.60;1.80;;;23.20;68.40;;;;;;5059631;28;20931;-73
2023/10/06 13:02:36;;;;;;;4.70;2.40;;;23.20;68.30;;;;;;5058846;28;20062;-70
2023/10/06 13:05:08;;;;;;;3.92;2.05;;;23.40;68.30;;;;;;5065475;28;20032;-73
2023/10/06 13:07:36;;;;;;;2.45;2.25;;;23.50;68.10;;;;;;5064821;28;20029;-71
2023/10/06 13:10:06;;;;;;;4.78;2.00;;;23.60;68.10;;;;;;5059709;28;20033;-72
2023/10/06 13:12:40;;;;;;;2.40;1.83;;;23.60;68.00;;;;;;5062431;28;20365;-69
2023/10/06 13:15:14;;;;;;;4.55;2.13;;;23.50;67.80;;;;;;5057252;28;20040;-68